sensor_id;sensor_type;location;lat;lon;timestamp;P1;durP1;ratioP1;P2;durP2;ratioP2
39968;SDS011;25648;47.808;19.004;2022-08-21T00:01:47;7.50;;;6.70;;
39968;SDS011;25648;47.808;19.004;2022-08-21T00:04:13;8.43;;;6.57;;
39968;SDS011;25648;47.808;19.004;2022-08-21T00:06:38;9.45;;;6.30;;
39968;SDS011;25648;47.808;19.004;2022-08-21T00:09:05;8.65;;;6.70;;
39968;SDS011;25648;47.808;19.004;2022-08-21T00:11:33;8.38;;;6.78;;
39968;SDS011;25648;47.808;19.004;2022-08-21T00:14:00;9.50;;;7.30;;
39968;SDS011;25648;47.808;19.004;2022-08-21T00:16:26;9.32;;;6.72;;
39968;SDS011;25648;47.808;19.004;2022-08-21T00:18:52;8.90;;;7.30;;
39968;SDS011;25648;47.808;19.004;2022-08-21T00:21:18;8.70;;;6.47;;
39968;SDS011;25648;47.808;19.004;2022-08-21T00:23:43;8.93;;;7.25;;
39968;SDS011;25648;47.808;19.004;2022-08-21T00:26:10;7.93;;;6.63;;
39968;SDS011;25648;47.808;19.004;2022-08-21T00:28:35;7.70;;;6.90;;
39968;SDS011;25648;47.808;19.004;2022-08-21T00:31:01;7.55;;;6.10;;
39968;SDS011;25648;47.808;19.004;2022-08-21T00:33:29;9.02;;;6.70;;
39968;SDS011;25648;47.808;19.004;2022-08-21T00:35:56;9.02;;;7.00;;
39968;SDS011;25648;47.808;19.004;2022-08-21T00:38:21;8.93;;;7.82;;
39968;SDS011;25648;47.808;19.004;2022-08-21T00:40:53;8.32;;;6.90;;
39968;SDS011;25648;47.808;19.004;2022-08-21T00:43:26;8.43;;;7.45;;
39968;SDS011;25648;47.808;19.004;2022-08-21T00:45:55;8.77;;;7.38;;
39968;SDS011;25648;47.808;19.004;2022-08-21T00:48:21;6.93;;;6.22;;
39968;SDS011;25648;47.808;19.004;2022-08-21T00:53:31;7.55;;;6.72;;
39968;SDS011;25648;47.808;19.004;2022-08-21T00:55:59;9.32;;;7.28;;
39968;SDS011;25648;47.808;19.004;2022-08-21T00:58:27;9.10;;;7.20;;
39968;SDS011;25648;47.808;19.004;2022-08-21T01:00:55;8.68;;;6.90;;
39968;SDS011;25648;47.808;19.004;2022-08-21T01:03:22;8.60;;;7.35;;
39968;SDS011;25648;47.808;19.004;2022-08-21T01:05:50;9.10;;;8.13;;
39968;SDS011;25648;47.808;19.004;2022-08-21T01:08:16;8.80;;;7.60;;
39968;SDS011;25648;47.808;19.004;2022-08-21T01:10:44;8.23;;;7.30;;
39968;SDS011;25648;47.808;19.004;2022-08-21T01:13:12;14.43;;;7.82;;
39968;SDS011;25648;47.808;19.004;2022-08-21T01:15:42;10.30;;;8.55;;
39968;SDS011;25648;47.808;19.004;2022-08-21T01:18:10;10.35;;;9.07;;
39968;SDS011;25648;47.808;19.004;2022-08-21T01:20:37;9.70;;;8.70;;
39968;SDS011;25648;47.808;19.004;2022-08-21T01:23:06;10.90;;;9.77;;
39968;SDS011;25648;47.808;19.004;2022-08-21T01:25:32;13.10;;;9.70;;
39968;SDS011;25648;47.808;19.004;2022-08-21T01:28:00;10.25;;;9.15;;
39968;SDS011;25648;47.808;19.004;2022-08-21T01:30:31;11.68;;;9.90;;
39968;SDS011;25648;47.808;19.004;2022-08-21T01:32:59;11.13;;;9.77;;
39968;SDS011;25648;47.808;19.004;2022-08-21T01:35:25;12.55;;;9.70;;
39968;SDS011;25648;47.808;19.004;2022-08-21T01:37:51;12.73;;;10.07;;
39968;SDS011;25648;47.808;19.004;2022-08-21T01:40:17;10.52;;;9.43;;
39968;SDS011;25648;47.808;19.004;2022-08-21T01:42:44;11.43;;;10.05;;
39968;SDS011;25648;47.808;19.004;2022-08-21T01:45:11;12.77;;;9.40;;
39968;SDS011;25648;47.808;19.004;2022-08-21T01:47:38;12.80;;;10.05;;
39968;SDS011;25648;47.808;19.004;2022-08-21T01:50:07;16.65;;;11.27;;
39968;SDS011;25648;47.808;19.004;2022-08-21T01:52:35;13.52;;;10.00;;
39968;SDS011;25648;47.808;19.004;2022-08-21T01:55:01;12.15;;;9.65;;
39968;SDS011;25648;47.808;19.004;2022-08-21T01:57:27;12.20;;;9.88;;
39968;SDS011;25648;47.808;19.004;2022-08-21T01:59:53;15.27;;;11.75;;
39968;SDS011;25648;47.808;19.004;2022-08-21T02:02:19;13.90;;;10.50;;
39968;SDS011;25648;47.808;19.004;2022-08-21T02:04:45;12.55;;;11.13;;
39968;SDS011;25648;47.808;19.004;2022-08-21T02:07:10;13.38;;;10.52;;
39968;SDS011;25648;47.808;19.004;2022-08-21T02:09:36;13.98;;;11.10;;
39968;SDS011;25648;47.808;19.004;2022-08-21T02:12:02;12.30;;;10.73;;
39968;SDS011;25648;47.808;19.004;2022-08-21T02:14:28;14.13;;;11.52;;
39968;SDS011;25648;47.808;19.004;2022-08-21T02:16:57;13.82;;;12.15;;
39968;SDS011;25648;47.808;19.004;2022-08-21T02:19:22;13.38;;;11.52;;
39968;SDS011;25648;47.808;19.004;2022-08-21T02:21:48;15.02;;;11.48;;
39968;SDS011;25648;47.808;19.004;2022-08-21T02:24:14;13.98;;;11.93;;
39968;SDS011;25648;47.808;19.004;2022-08-21T02:26:39;12.95;;;10.57;;
39968;SDS011;25648;47.808;19.004;2022-08-21T02:29:05;14.25;;;11.77;;
39968;SDS011;25648;47.808;19.004;2022-08-21T02:31:31;15.82;;;12.10;;
39968;SDS011;25648;47.808;19.004;2022-08-21T02:33:57;17.73;;;13.02;;
39968;SDS011;25648;47.808;19.004;2022-08-21T02:36:23;14.05;;;11.10;;
39968;SDS011;25648;47.808;19.004;2022-08-21T02:38:49;12.73;;;10.85;;
39968;SDS011;25648;47.808;19.004;2022-08-21T02:41:16;15.77;;;11.52;;
39968;SDS011;25648;47.808;19.004;2022-08-21T02:43:44;15.63;;;12.23;;
39968;SDS011;25648;47.808;19.004;2022-08-21T02:46:11;13.48;;;11.13;;
39968;SDS011;25648;47.808;19.004;2022-08-21T02:48:38;15.30;;;11.75;;
39968;SDS011;25648;47.808;19.004;2022-08-21T02:51:09;13.98;;;11.63;;
39968;SDS011;25648;47.808;19.004;2022-08-21T02:53:42;14.25;;;11.82;;
39968;SDS011;25648;47.808;19.004;2022-08-21T02:56:10;16.52;;;12.15;;
39968;SDS011;25648;47.808;19.004;2022-08-21T02:58:39;17.20;;;12.90;;
39968;SDS011;25648;47.808;19.004;2022-08-21T03:03:34;17.25;;;12.32;;
39968;SDS011;25648;47.808;19.004;2022-08-21T03:06:01;15.02;;;10.95;;
39968;SDS011;25648;47.808;19.004;2022-08-21T03:08:27;14.35;;;10.93;;
39968;SDS011;25648;47.808;19.004;2022-08-21T03:10:53;14.07;;;11.57;;
39968;SDS011;25648;47.808;19.004;2022-08-21T03:13:19;12.57;;;10.80;;
39968;SDS011;25648;47.808;19.004;2022-08-21T03:15:49;13.50;;;11.23;;
39968;SDS011;25648;47.808;19.004;2022-08-21T03:18:15;14.30;;;12.25;;
39968;SDS011;25648;47.808;19.004;2022-08-21T03:20:42;14.48;;;12.00;;
39968;SDS011;25648;47.808;19.004;2022-08-21T03:23:10;14.10;;;11.52;;
39968;SDS011;25648;47.808;19.004;2022-08-21T03:25:37;14.95;;;12.13;;
39968;SDS011;25648;47.808;19.004;2022-08-21T03:28:03;14.65;;;11.90;;
39968;SDS011;25648;47.808;19.004;2022-08-21T03:30:34;17.15;;;13.32;;
39968;SDS011;25648;47.808;19.004;2022-08-21T03:33:01;15.98;;;11.80;;
39968;SDS011;25648;47.808;19.004;2022-08-21T03:35:27;16.65;;;12.05;;
39968;SDS011;25648;47.808;19.004;2022-08-21T03:37:53;15.30;;;12.13;;
39968;SDS011;25648;47.808;19.004;2022-08-21T03:40:20;15.35;;;11.93;;
39968;SDS011;25648;47.808;19.004;2022-08-21T03:42:46;14.70;;;11.88;;
39968;SDS011;25648;47.808;19.004;2022-08-21T03:45:12;16.42;;;12.40;;
39968;SDS011;25648;47.808;19.004;2022-08-21T03:50:30;15.75;;;11.30;;
39968;SDS011;25648;47.808;19.004;2022-08-21T03:52:58;17.38;;;12.00;;
39968;SDS011;25648;47.808;19.004;2022-08-21T03:55:24;14.88;;;11.93;;
39968;SDS011;25648;47.808;19.004;2022-08-21T03:57:51;13.38;;;10.70;;
39968;SDS011;25648;47.808;19.004;2022-08-21T04:00:17;16.10;;;11.50;;
39968;SDS011;25648;47.808;19.004;2022-08-21T04:02:44;14.52;;;11.82;;
39968;SDS011;25648;47.808;19.004;2022-08-21T04:05:11;15.82;;;11.68;;
39968;SDS011;25648;47.808;19.004;2022-08-21T04:07:38;17.63;;;12.85;;
39968;SDS011;25648;47.808;19.004;2022-08-21T04:10:05;13.82;;;11.40;;
39968;SDS011;25648;47.808;19.004;2022-08-21T04:12:32;16.05;;;11.93;;
39968;SDS011;25648;47.808;19.004;2022-08-21T04:14:58;16.05;;;11.75;;
39968;SDS011;25648;47.808;19.004;2022-08-21T04:17:24;14.23;;;11.60;;
39968;SDS011;25648;47.808;19.004;2022-08-21T04:19:49;16.70;;;12.38;;
39968;SDS011;25648;47.808;19.004;2022-08-21T04:22:15;15.90;;;12.75;;
39968;SDS011;25648;47.808;19.004;2022-08-21T04:24:41;13.95;;;11.60;;
39968;SDS011;25648;47.808;19.004;2022-08-21T04:27:07;16.17;;;12.57;;
39968;SDS011;25648;47.808;19.004;2022-08-21T04:29:32;15.13;;;12.07;;
39968;SDS011;25648;47.808;19.004;2022-08-21T04:31:58;15.60;;;11.30;;
39968;SDS011;25648;47.808;19.004;2022-08-21T04:34:24;15.50;;;11.90;;
39968;SDS011;25648;47.808;19.004;2022-08-21T04:36:50;14.77;;;11.65;;
39968;SDS011;25648;47.808;19.004;2022-08-21T04:39:16;16.83;;;10.80;;
39968;SDS011;25648;47.808;19.004;2022-08-21T04:41:41;13.70;;;10.65;;
39968;SDS011;25648;47.808;19.004;2022-08-21T04:44:07;13.18;;;10.40;;
39968;SDS011;25648;47.808;19.004;2022-08-21T04:46:33;13.05;;;10.32;;
39968;SDS011;25648;47.808;19.004;2022-08-21T04:48:59;13.23;;;10.52;;
39968;SDS011;25648;47.808;19.004;2022-08-21T04:51:30;13.43;;;9.98;;
39968;SDS011;25648;47.808;19.004;2022-08-21T04:54:00;12.98;;;10.13;;
39968;SDS011;25648;47.808;19.004;2022-08-21T04:56:55;13.02;;;10.25;;
39968;SDS011;25648;47.808;19.004;2022-08-21T04:59:29;13.65;;;9.52;;
39968;SDS011;25648;47.808;19.004;2022-08-21T05:02:00;11.88;;;9.73;;
39968;SDS011;25648;47.808;19.004;2022-08-21T05:04:28;11.35;;;9.30;;
39968;SDS011;25648;47.808;19.004;2022-08-21T05:06:57;14.13;;;9.90;;
39968;SDS011;25648;47.808;19.004;2022-08-21T05:11:55;9.63;;;8.07;;
39968;SDS011;25648;47.808;19.004;2022-08-21T05:14:21;11.52;;;8.70;;
39968;SDS011;25648;47.808;19.004;2022-08-21T05:16:47;10.48;;;8.73;;
39968;SDS011;25648;47.808;19.004;2022-08-21T05:19:13;10.13;;;8.73;;
39968;SDS011;25648;47.808;19.004;2022-08-21T05:21:41;10.35;;;8.80;;
39968;SDS011;25648;47.808;19.004;2022-08-21T05:24:08;10.20;;;8.25;;
39968;SDS011;25648;47.808;19.004;2022-08-21T05:26:34;10.93;;;8.73;;
39968;SDS011;25648;47.808;19.004;2022-08-21T05:29:01;9.98;;;8.70;;
39968;SDS011;25648;47.808;19.004;2022-08-21T05:31:27;10.43;;;8.70;;
39968;SDS011;25648;47.808;19.004;2022-08-21T05:33:53;10.80;;;8.00;;
39968;SDS011;25648;47.808;19.004;2022-08-21T05:36:19;10.43;;;8.18;;
39968;SDS011;25648;47.808;19.004;2022-08-21T05:38:45;8.93;;;7.78;;
39968;SDS011;25648;47.808;19.004;2022-08-21T05:41:11;12.32;;;8.48;;
39968;SDS011;25648;47.808;19.004;2022-08-21T05:43:37;9.75;;;8.02;;
39968;SDS011;25648;47.808;19.004;2022-08-21T05:46:03;10.52;;;8.25;;
39968;SDS011;25648;47.808;19.004;2022-08-21T05:48:30;10.60;;;7.93;;
39968;SDS011;25648;47.808;19.004;2022-08-21T05:50:56;9.95;;;8.05;;
39968;SDS011;25648;47.808;19.004;2022-08-21T05:53:23;9.02;;;7.18;;
39968;SDS011;25648;47.808;19.004;2022-08-21T05:55:50;8.75;;;7.60;;
39968;SDS011;25648;47.808;19.004;2022-08-21T05:58:17;9.43;;;7.10;;
39968;SDS011;25648;47.808;19.004;2022-08-21T06:00:45;10.90;;;7.85;;
39968;SDS011;25648;47.808;19.004;2022-08-21T06:03:21;11.77;;;7.32;;
39968;SDS011;25648;47.808;19.004;2022-08-21T06:05:48;10.68;;;8.02;;
39968;SDS011;25648;47.808;19.004;2022-08-21T06:08:15;8.45;;;6.90;;
39968;SDS011;25648;47.808;19.004;2022-08-21T06:10:41;9.98;;;7.38;;
39968;SDS011;25648;47.808;19.004;2022-08-21T06:13:08;12.43;;;8.80;;
39968;SDS011;25648;47.808;19.004;2022-08-21T06:15:34;11.07;;;8.00;;
39968;SDS011;25648;47.808;19.004;2022-08-21T06:17:59;10.20;;;8.35;;
39968;SDS011;25648;47.808;19.004;2022-08-21T06:20:26;9.65;;;7.97;;
39968;SDS011;25648;47.808;19.004;2022-08-21T06:22:51;10.80;;;7.75;;
39968;SDS011;25648;47.808;19.004;2022-08-21T06:25:17;11.63;;;8.25;;
39968;SDS011;25648;47.808;19.004;2022-08-21T06:27:43;11.55;;;9.20;;
39968;SDS011;25648;47.808;19.004;2022-08-21T06:30:09;11.02;;;8.23;;
39968;SDS011;25648;47.808;19.004;2022-08-21T06:32:35;9.20;;;7.90;;
39968;SDS011;25648;47.808;19.004;2022-08-21T06:35:01;10.43;;;8.85;;
39968;SDS011;25648;47.808;19.004;2022-08-21T06:37:28;9.75;;;8.75;;
39968;SDS011;25648;47.808;19.004;2022-08-21T06:39:54;10.27;;;7.72;;
39968;SDS011;25648;47.808;19.004;2022-08-21T06:42:19;9.80;;;8.40;;
39968;SDS011;25648;47.808;19.004;2022-08-21T06:44:45;9.85;;;8.60;;
39968;SDS011;25648;47.808;19.004;2022-08-21T06:47:14;10.02;;;8.48;;
39968;SDS011;25648;47.808;19.004;2022-08-21T06:49:40;10.30;;;8.52;;
39968;SDS011;25648;47.808;19.004;2022-08-21T06:52:12;11.07;;;8.57;;
39968;SDS011;25648;47.808;19.004;2022-08-21T06:54:39;11.93;;;9.40;;
39968;SDS011;25648;47.808;19.004;2022-08-21T06:57:05;9.70;;;8.40;;
39968;SDS011;25648;47.808;19.004;2022-08-21T06:59:31;11.05;;;8.48;;
39968;SDS011;25648;47.808;19.004;2022-08-21T07:01:58;13.20;;;7.50;;
39968;SDS011;25648;47.808;19.004;2022-08-21T07:04:24;11.45;;;8.30;;
39968;SDS011;25648;47.808;19.004;2022-08-21T07:06:50;9.25;;;8.25;;
39968;SDS011;25648;47.808;19.004;2022-08-21T07:09:16;10.20;;;7.78;;
39968;SDS011;25648;47.808;19.004;2022-08-21T07:11:41;8.38;;;7.43;;
39968;SDS011;25648;47.808;19.004;2022-08-21T07:14:09;11.13;;;8.02;;
39968;SDS011;25648;47.808;19.004;2022-08-21T07:16:34;12.88;;;7.80;;
39968;SDS011;25648;47.808;19.004;2022-08-21T07:19:00;8.73;;;7.75;;
39968;SDS011;25648;47.808;19.004;2022-08-21T07:21:26;10.05;;;8.95;;
39968;SDS011;25648;47.808;19.004;2022-08-21T07:23:52;10.18;;;8.93;;
39968;SDS011;25648;47.808;19.004;2022-08-21T07:26:20;10.25;;;7.88;;
39968;SDS011;25648;47.808;19.004;2022-08-21T07:28:47;9.48;;;7.60;;
39968;SDS011;25648;47.808;19.004;2022-08-21T07:31:14;9.38;;;8.20;;
39968;SDS011;25648;47.808;19.004;2022-08-21T07:33:41;11.75;;;8.55;;
39968;SDS011;25648;47.808;19.004;2022-08-21T07:36:08;8.98;;;7.85;;
39968;SDS011;25648;47.808;19.004;2022-08-21T07:38:34;9.70;;;7.80;;
39968;SDS011;25648;47.808;19.004;2022-08-21T07:41:00;12.18;;;8.48;;
39968;SDS011;25648;47.808;19.004;2022-08-21T07:43:27;9.30;;;8.20;;
39968;SDS011;25648;47.808;19.004;2022-08-21T07:45:54;11.32;;;8.27;;
39968;SDS011;25648;47.808;19.004;2022-08-21T07:48:21;10.98;;;8.23;;
39968;SDS011;25648;47.808;19.004;2022-08-21T07:50:47;8.95;;;7.63;;
39968;SDS011;25648;47.808;19.004;2022-08-21T07:53:13;9.48;;;8.27;;
39968;SDS011;25648;47.808;19.004;2022-08-21T07:55:40;9.38;;;7.82;;
39968;SDS011;25648;47.808;19.004;2022-08-21T07:58:06;8.63;;;7.57;;
39968;SDS011;25648;47.808;19.004;2022-08-21T08:00:32;9.25;;;7.13;;
39968;SDS011;25648;47.808;19.004;2022-08-21T08:02:58;8.70;;;7.25;;
39968;SDS011;25648;47.808;19.004;2022-08-21T08:05:25;8.80;;;6.95;;
39968;SDS011;25648;47.808;19.004;2022-08-21T08:07:53;9.68;;;8.38;;
39968;SDS011;25648;47.808;19.004;2022-08-21T08:10:19;10.05;;;7.85;;
39968;SDS011;25648;47.808;19.004;2022-08-21T08:12:45;8.02;;;6.78;;
39968;SDS011;25648;47.808;19.004;2022-08-21T08:15:13;10.07;;;7.90;;
39968;SDS011;25648;47.808;19.004;2022-08-21T08:17:41;8.98;;;7.22;;
39968;SDS011;25648;47.808;19.004;2022-08-21T08:20:07;10.13;;;7.63;;
39968;SDS011;25648;47.808;19.004;2022-08-21T08:22:35;14.07;;;8.23;;
39968;SDS011;25648;47.808;19.004;2022-08-21T08:25:02;8.35;;;7.45;;
39968;SDS011;25648;47.808;19.004;2022-08-21T08:27:30;10.23;;;7.38;;
39968;SDS011;25648;47.808;19.004;2022-08-21T08:29:56;8.02;;;6.45;;
39968;SDS011;25648;47.808;19.004;2022-08-21T08:32:23;9.52;;;6.80;;
39968;SDS011;25648;47.808;19.004;2022-08-21T08:34:48;9.88;;;7.60;;
39968;SDS011;25648;47.808;19.004;2022-08-21T08:37:17;9.73;;;7.25;;
39968;SDS011;25648;47.808;19.004;2022-08-21T08:39:44;7.82;;;6.70;;
39968;SDS011;25648;47.808;19.004;2022-08-21T08:42:43;9.38;;;7.00;;
39968;SDS011;25648;47.808;19.004;2022-08-21T08:47:31;10.80;;;7.25;;
39968;SDS011;25648;47.808;19.004;2022-08-21T08:50:06;11.10;;;7.90;;
39968;SDS011;25648;47.808;19.004;2022-08-21T08:52:41;8.45;;;7.55;;
39968;SDS011;25648;47.808;19.004;2022-08-21T08:55:17;9.38;;;7.43;;
39968;SDS011;25648;47.808;19.004;2022-08-21T08:57:48;11.05;;;6.90;;
39968;SDS011;25648;47.808;19.004;2022-08-21T09:00:17;10.30;;;8.10;;
39968;SDS011;25648;47.808;19.004;2022-08-21T09:02:46;9.45;;;6.85;;
39968;SDS011;25648;47.808;19.004;2022-08-21T09:05:22;9.85;;;7.50;;
39968;SDS011;25648;47.808;19.004;2022-08-21T09:11:13;9.45;;;7.22;;
39968;SDS011;25648;47.808;19.004;2022-08-21T09:19:29;8.98;;;7.50;;
39968;SDS011;25648;47.808;19.004;2022-08-21T09:27:57;8.57;;;7.50;;
39968;SDS011;25648;47.808;19.004;2022-08-21T09:32:35;8.95;;;6.50;;
39968;SDS011;25648;47.808;19.004;2022-08-21T09:37:47;9.18;;;6.28;;
39968;SDS011;25648;47.808;19.004;2022-08-21T09:45:28;8.45;;;7.10;;
39968;SDS011;25648;47.808;19.004;2022-08-21T09:47:55;7.77;;;5.90;;
39968;SDS011;25648;47.808;19.004;2022-08-21T09:50:26;8.60;;;6.00;;
39968;SDS011;25648;47.808;19.004;2022-08-21T09:52:57;9.20;;;6.45;;
39968;SDS011;25648;47.808;19.004;2022-08-21T09:55:34;7.78;;;6.30;;
39968;SDS011;25648;47.808;19.004;2022-08-21T09:58:30;8.87;;;6.13;;
39968;SDS011;25648;47.808;19.004;2022-08-21T10:00:58;24.50;;;22.52;;
39968;SDS011;25648;47.808;19.004;2022-08-21T10:03:25;7.00;;;5.78;;
39968;SDS011;25648;47.808;19.004;2022-08-21T10:05:59;6.50;;;5.68;;
39968;SDS011;25648;47.808;19.004;2022-08-21T10:08:34;6.70;;;5.50;;
39968;SDS011;25648;47.808;19.004;2022-08-21T10:11:02;10.02;;;6.35;;
39968;SDS011;25648;47.808;19.004;2022-08-21T10:13:52;6.78;;;5.20;;
39968;SDS011;25648;47.808;19.004;2022-08-21T10:32:30;6.00;;;4.90;;
39968;SDS011;25648;47.808;19.004;2022-08-21T10:35:13;5.93;;;5.22;;
39968;SDS011;25648;47.808;19.004;2022-08-21T10:40:40;6.97;;;5.63;;
39968;SDS011;25648;47.808;19.004;2022-08-21T10:48:49;7.43;;;6.22;;
39968;SDS011;25648;47.808;19.004;2022-08-21T10:51:37;6.85;;;4.85;;
39968;SDS011;25648;47.808;19.004;2022-08-21T10:54:12;6.68;;;5.97;;
39968;SDS011;25648;47.808;19.004;2022-08-21T10:56:43;10.45;;;5.32;;
39968;SDS011;25648;47.808;19.004;2022-08-21T10:59:26;6.28;;;5.05;;
39968;SDS011;25648;47.808;19.004;2022-08-21T11:05:01;6.72;;;5.28;;
39968;SDS011;25648;47.808;19.004;2022-08-21T11:10:21;9.70;;;5.45;;
39968;SDS011;25648;47.808;19.004;2022-08-21T11:12:50;6.65;;;4.88;;
39968;SDS011;25648;47.808;19.004;2022-08-21T11:15:44;6.65;;;5.25;;
39968;SDS011;25648;47.808;19.004;2022-08-21T11:18:24;7.45;;;5.20;;
39968;SDS011;25648;47.808;19.004;2022-08-21T11:23:40;9.43;;;5.40;;
39968;SDS011;25648;47.808;19.004;2022-08-21T11:26:25;7.35;;;5.70;;
39968;SDS011;25648;47.808;19.004;2022-08-21T11:29:04;6.28;;;5.18;;
39968;SDS011;25648;47.808;19.004;2022-08-21T11:40:04;7.03;;;5.95;;
39968;SDS011;25648;47.808;19.004;2022-08-21T11:42:54;8.32;;;5.53;;
39968;SDS011;25648;47.808;19.004;2022-08-21T11:47:56;7.05;;;5.57;;
39968;SDS011;25648;47.808;19.004;2022-08-21T11:50:32;7.38;;;5.45;;
39968;SDS011;25648;47.808;19.004;2022-08-21T11:55:41;8.48;;;5.38;;
39968;SDS011;25648;47.808;19.004;2022-08-21T11:58:30;7.95;;;5.78;;
39968;SDS011;25648;47.808;19.004;2022-08-21T12:01:11;7.67;;;5.97;;
39968;SDS011;25648;47.808;19.004;2022-08-21T12:03:44;8.45;;;4.88;;
39968;SDS011;25648;47.808;19.004;2022-08-21T12:06:31;7.80;;;5.15;;
39968;SDS011;25648;47.808;19.004;2022-08-21T12:09:28;8.85;;;5.63;;
39968;SDS011;25648;47.808;19.004;2022-08-21T12:14:44;7.13;;;6.00;;
39968;SDS011;25648;47.808;19.004;2022-08-21T12:17:22;8.95;;;5.47;;
39968;SDS011;25648;47.808;19.004;2022-08-21T12:20:00;9.30;;;5.85;;
39968;SDS011;25648;47.808;19.004;2022-08-21T12:22:40;5.97;;;5.07;;
39968;SDS011;25648;47.808;19.004;2022-08-21T12:25:15;6.00;;;4.97;;
39968;SDS011;25648;47.808;19.004;2022-08-21T12:27:49;5.90;;;5.05;;
39968;SDS011;25648;47.808;19.004;2022-08-21T12:30:19;5.97;;;5.10;;
39968;SDS011;25648;47.808;19.004;2022-08-21T12:32:53;7.30;;;5.78;;
39968;SDS011;25648;47.808;19.004;2022-08-21T12:35:25;6.43;;;5.18;;
39968;SDS011;25648;47.808;19.004;2022-08-21T12:38:00;6.45;;;5.38;;
39968;SDS011;25648;47.808;19.004;2022-08-21T12:40:37;6.35;;;4.65;;
39968;SDS011;25648;47.808;19.004;2022-08-21T12:43:05;7.70;;;5.00;;
39968;SDS011;25648;47.808;19.004;2022-08-21T12:45:43;6.55;;;5.45;;
39968;SDS011;25648;47.808;19.004;2022-08-21T12:51:06;9.10;;;4.90;;
39968;SDS011;25648;47.808;19.004;2022-08-21T12:56:12;6.90;;;4.82;;
39968;SDS011;25648;47.808;19.004;2022-08-21T12:58:41;6.57;;;4.97;;
39968;SDS011;25648;47.808;19.004;2022-08-21T13:03:57;7.72;;;4.60;;
39968;SDS011;25648;47.808;19.004;2022-08-21T13:06:26;6.07;;;4.90;;
39968;SDS011;25648;47.808;19.004;2022-08-21T13:08:57;6.75;;;4.70;;
39968;SDS011;25648;47.808;19.004;2022-08-21T13:11:29;5.53;;;4.00;;
39968;SDS011;25648;47.808;19.004;2022-08-21T13:13:56;6.20;;;4.40;;
39968;SDS011;25648;47.808;19.004;2022-08-21T13:16:24;5.45;;;4.30;;
39968;SDS011;25648;47.808;19.004;2022-08-21T13:18:59;7.13;;;4.20;;
39968;SDS011;25648;47.808;19.004;2022-08-21T13:21:28;6.68;;;4.55;;
39968;SDS011;25648;47.808;19.004;2022-08-21T13:24:15;7.57;;;4.72;;
39968;SDS011;25648;47.808;19.004;2022-08-21T13:26:43;6.15;;;4.00;;
39968;SDS011;25648;47.808;19.004;2022-08-21T13:29:10;4.43;;;3.50;;
39968;SDS011;25648;47.808;19.004;2022-08-21T13:31:37;5.68;;;3.75;;
39968;SDS011;25648;47.808;19.004;2022-08-21T13:34:05;8.00;;;3.63;;
39968;SDS011;25648;47.808;19.004;2022-08-21T13:36:34;5.80;;;3.65;;
39968;SDS011;25648;47.808;19.004;2022-08-21T13:39:05;4.38;;;3.65;;
39968;SDS011;25648;47.808;19.004;2022-08-21T13:41:34;4.55;;;3.42;;
39968;SDS011;25648;47.808;19.004;2022-08-21T13:44:03;5.05;;;3.22;;
39968;SDS011;25648;47.808;19.004;2022-08-21T13:46:38;4.72;;;3.25;;
39968;SDS011;25648;47.808;19.004;2022-08-21T13:49:04;3.85;;;2.63;;
39968;SDS011;25648;47.808;19.004;2022-08-21T13:51:31;5.93;;;3.20;;
39968;SDS011;25648;47.808;19.004;2022-08-21T13:53:58;5.85;;;3.40;;
39968;SDS011;25648;47.808;19.004;2022-08-21T13:56:28;5.55;;;2.90;;
39968;SDS011;25648;47.808;19.004;2022-08-21T13:59:06;4.00;;;2.88;;
39968;SDS011;25648;47.808;19.004;2022-08-21T14:04:36;5.90;;;4.25;;
39968;SDS011;25648;47.808;19.004;2022-08-21T14:07:14;5.18;;;2.78;;
39968;SDS011;25648;47.808;19.004;2022-08-21T14:09:50;6.15;;;2.95;;
39968;SDS011;25648;47.808;19.004;2022-08-21T14:12:18;5.18;;;3.10;;
39968;SDS011;25648;47.808;19.004;2022-08-21T14:14:57;4.65;;;2.85;;
39968;SDS011;25648;47.808;19.004;2022-08-21T14:17:29;6.25;;;3.10;;
39968;SDS011;25648;47.808;19.004;2022-08-21T14:19:56;4.30;;;2.78;;
39968;SDS011;25648;47.808;19.004;2022-08-21T14:22:36;3.22;;;2.38;;
39968;SDS011;25648;47.808;19.004;2022-08-21T14:27:43;3.30;;;2.43;;
39968;SDS011;25648;47.808;19.004;2022-08-21T14:30:40;4.53;;;2.55;;
39968;SDS011;25648;47.808;19.004;2022-08-21T14:33:08;5.05;;;2.60;;
39968;SDS011;25648;47.808;19.004;2022-08-21T14:35:40;3.65;;;2.30;;
39968;SDS011;25648;47.808;19.004;2022-08-21T14:38:17;5.50;;;2.70;;
39968;SDS011;25648;47.808;19.004;2022-08-21T14:40:47;4.93;;;2.63;;
39968;SDS011;25648;47.808;19.004;2022-08-21T14:43:15;4.65;;;2.50;;
39968;SDS011;25648;47.808;19.004;2022-08-21T14:45:41;5.75;;;2.50;;
39968;SDS011;25648;47.808;19.004;2022-08-21T14:48:08;3.22;;;2.30;;
39968;SDS011;25648;47.808;19.004;2022-08-21T14:50:34;3.80;;;2.35;;
39968;SDS011;25648;47.808;19.004;2022-08-21T14:53:00;4.82;;;2.80;;
39968;SDS011;25648;47.808;19.004;2022-08-21T14:55:26;4.45;;;2.22;;
39968;SDS011;25648;47.808;19.004;2022-08-21T14:57:52;3.00;;;2.00;;
39968;SDS011;25648;47.808;19.004;2022-08-21T15:00:21;4.75;;;2.20;;
39968;SDS011;25648;47.808;19.004;2022-08-21T15:02:48;4.95;;;2.50;;
39968;SDS011;25648;47.808;19.004;2022-08-21T15:05:15;3.60;;;2.28;;
39968;SDS011;25648;47.808;19.004;2022-08-21T15:07:41;4.32;;;2.00;;
39968;SDS011;25648;47.808;19.004;2022-08-21T15:10:07;4.47;;;2.22;;
39968;SDS011;25648;47.808;19.004;2022-08-21T15:12:34;3.35;;;2.35;;
39968;SDS011;25648;47.808;19.004;2022-08-21T15:15:00;6.45;;;2.42;;
39968;SDS011;25648;47.808;19.004;2022-08-21T15:17:26;6.10;;;2.40;;
39968;SDS011;25648;47.808;19.004;2022-08-21T15:20:57;3.50;;;2.33;;
39968;SDS011;25648;47.808;19.004;2022-08-21T15:23:23;3.33;;;2.10;;
39968;SDS011;25648;47.808;19.004;2022-08-21T15:25:49;3.75;;;2.22;;
39968;SDS011;25648;47.808;19.004;2022-08-21T15:28:17;6.05;;;2.50;;
39968;SDS011;25648;47.808;19.004;2022-08-21T15:30:43;4.57;;;2.50;;
39968;SDS011;25648;47.808;19.004;2022-08-21T15:33:10;4.22;;;2.60;;
39968;SDS011;25648;47.808;19.004;2022-08-21T15:35:36;3.88;;;2.67;;
39968;SDS011;25648;47.808;19.004;2022-08-21T15:38:02;5.57;;;3.55;;
39968;SDS011;25648;47.808;19.004;2022-08-21T15:40:28;3.95;;;2.58;;
39968;SDS011;25648;47.808;19.004;2022-08-21T15:42:58;6.97;;;2.80;;
39968;SDS011;25648;47.808;19.004;2022-08-21T15:45:26;3.80;;;2.83;;
39968;SDS011;25648;47.808;19.004;2022-08-21T15:47:53;4.65;;;3.00;;
39968;SDS011;25648;47.808;19.004;2022-08-21T15:50:19;4.30;;;3.30;;
39968;SDS011;25648;47.808;19.004;2022-08-21T15:52:46;4.72;;;3.17;;
39968;SDS011;25648;47.808;19.004;2022-08-21T15:55:12;5.03;;;3.70;;
39968;SDS011;25648;47.808;19.004;2022-08-21T15:57:42;6.47;;;3.67;;
39968;SDS011;25648;47.808;19.004;2022-08-21T16:00:21;5.82;;;3.60;;
39968;SDS011;25648;47.808;19.004;2022-08-21T16:02:49;7.82;;;4.32;;
39968;SDS011;25648;47.808;19.004;2022-08-21T16:05:17;7.53;;;4.57;;
39968;SDS011;25648;47.808;19.004;2022-08-21T16:07:44;6.15;;;4.07;;
39968;SDS011;25648;47.808;19.004;2022-08-21T16:10:10;8.30;;;4.95;;
39968;SDS011;25648;47.808;19.004;2022-08-21T16:12:40;6.30;;;4.18;;
39968;SDS011;25648;47.808;19.004;2022-08-21T16:15:11;6.10;;;4.43;;
39968;SDS011;25648;47.808;19.004;2022-08-21T16:17:38;9.85;;;5.50;;
39968;SDS011;25648;47.808;19.004;2022-08-21T16:20:06;8.32;;;4.72;;